createdAt,value
2018-11-21T00:00:52.233Z,14.90
2018-11-21T00:03:21.354Z,13.73
2018-11-21T00:05:50.206Z,16.60
2018-11-21T00:08:19.147Z,13.63
2018-11-21T00:10:47.951Z,15.60
2018-11-21T00:13:16.756Z,13.27
2018-11-21T00:15:45.640Z,16.40
2018-11-21T00:18:14.146Z,17.90
2018-11-21T00:20:42.643Z,15.97
2018-11-21T00:23:11.652Z,14.20
2018-11-21T00:25:40.162Z,14.57
2018-11-21T00:28:08.613Z,17.97
2018-11-21T00:30:38.107Z,17.70
2018-11-21T00:33:06.593Z,14.23
2018-11-21T00:35:35.050Z,17.80
2018-11-21T00:38:03.598Z,16.07
2018-11-21T00:40:32.365Z,19.30
2018-11-21T00:43:01.585Z,18.80
2018-11-21T00:45:30.663Z,15.23
2018-11-21T00:47:59.123Z,14.43
2018-11-21T00:50:27.585Z,17.17
2018-11-21T00:52:56.433Z,21.37
2018-11-21T00:55:25.144Z,15.37
2018-11-21T00:57:53.664Z,18.20
2018-11-21T01:00:22.471Z,18.13
2018-11-21T01:02:51.199Z,17.73
2018-11-21T01:05:20.167Z,17.77
2018-11-21T01:07:48.587Z,19.53
2018-11-21T01:10:17.514Z,20.03
2018-11-21T01:12:46.253Z,17.10
2018-11-21T01:15:14.760Z,19.80
2018-11-21T01:17:43.223Z,18.13
2018-11-21T01:20:12.170Z,23.63
2018-11-21T01:22:40.633Z,22.47
2018-11-21T01:25:09.762Z,21.33
2018-11-21T01:27:38.554Z,21.07
2018-11-21T01:30:08.167Z,19.07
2018-11-21T01:32:36.843Z,19.77
2018-11-21T01:35:05.994Z,20.93
2018-11-21T01:37:34.779Z,20.27
2018-11-21T01:40:03.252Z,22.13
2018-11-21T01:42:32.106Z,22.23
2018-11-21T01:45:00.578Z,24.33
2018-11-21T01:47:29.729Z,25.97
2018-11-21T01:49:59.002Z,22.30
2018-11-21T01:52:27.517Z,18.43
2018-11-21T01:54:56.413Z,18.93
2018-11-21T01:57:25.659Z,21.50
2018-11-21T01:59:54.083Z,20.57
2018-11-21T02:02:22.600Z,26.47
2018-11-21T02:04:52.117Z,21.37
2018-11-21T02:07:21.168Z,22.40
2018-11-21T02:09:49.656Z,22.80
2018-11-21T02:12:18.117Z,23.57
2018-11-21T02:14:46.984Z,21.10
2018-11-21T02:17:15.693Z,19.23
2018-11-21T02:19:45.014Z,26.90
2018-11-21T02:22:13.500Z,22.30
2018-11-21T02:24:41.980Z,23.67
2018-11-21T02:27:10.811Z,24.70
2018-11-21T02:29:39.263Z,22.73
2018-11-21T02:32:09.263Z,23.23
2018-11-21T02:34:38.559Z,23.43
2018-11-21T02:37:07.328Z,23.13
2018-11-21T02:39:36.099Z,19.53
2018-11-21T02:42:04.546Z,21.90
2018-11-21T02:44:33.367Z,22.57
2018-11-21T02:47:02.092Z,23.07
2018-11-21T02:49:30.584Z,23.90
2018-11-21T02:51:59.402Z,22.90
2018-11-21T02:54:28.203Z,26.70
2018-11-21T02:57:16.046Z,25.67
2018-11-21T02:59:45.755Z,23.00
2018-11-21T03:02:14.815Z,20.03
2018-11-21T03:04:43.566Z,21.70
2018-11-21T03:07:12.060Z,24.10
2018-11-21T03:09:40.900Z,20.53
2018-11-21T03:12:09.975Z,23.90
2018-11-21T03:14:39.006Z,22.07
2018-11-21T03:17:07.550Z,19.90
2018-11-21T03:19:36.016Z,22.37
2018-11-21T03:22:04.944Z,21.20
2018-11-21T03:24:33.741Z,20.67
2018-11-21T03:27:02.172Z,25.13
2018-11-21T03:29:31.349Z,27.13
2018-11-21T03:32:00.630Z,21.20
2018-11-21T03:34:29.424Z,26.33
2018-11-21T03:36:57.840Z,21.20
2018-11-21T03:39:26.786Z,28.43
2018-11-21T03:41:55.536Z,26.37
2018-11-21T03:44:24.431Z,23.27
2018-11-21T03:46:52.949Z,23.40
2018-11-21T03:49:21.711Z,25.20
2018-11-21T03:51:51.581Z,25.13
2018-11-21T03:54:20.743Z,22.83
2018-11-21T03:56:49.530Z,23.80
2018-11-21T03:59:17.967Z,25.27
2018-11-21T04:01:47.231Z,25.87
2018-11-21T04:04:16.304Z,24.30
2018-11-21T04:06:45.826Z,22.67
2018-11-21T04:09:14.532Z,24.70
2018-11-21T04:11:43.096Z,21.00
2018-11-21T04:14:11.512Z,26.20
2018-11-21T04:16:40.445Z,26.67
2018-11-21T04:19:09.236Z,27.07
2018-11-21T04:21:38.023Z,25.80
2018-11-21T04:24:06.813Z,25.73
2018-11-21T04:26:36.052Z,23.20
2018-11-21T04:29:05.113Z,24.60
2018-11-21T04:31:33.907Z,23.33
2018-11-21T04:34:02.395Z,25.13
2018-11-21T04:36:31.176Z,26.23
2018-11-21T04:38:59.648Z,28.23
2018-11-21T04:41:28.756Z,22.50
2018-11-21T04:43:58.277Z,23.83
2018-11-21T04:46:26.682Z,28.63
2018-11-21T04:48:55.413Z,26.70
2018-11-21T04:51:25.549Z,26.93
2018-11-21T04:53:53.989Z,22.37
2018-11-21T04:56:22.780Z,26.93
2018-11-21T04:58:51.635Z,25.40
2018-11-21T05:01:20.770Z,25.60
2018-11-21T05:03:49.297Z,27.27
2018-11-21T05:06:17.743Z,27.43
2018-11-21T05:08:46.535Z,28.80
2018-11-21T05:11:14.991Z,27.77
2018-11-21T05:13:43.494Z,26.60
2018-11-21T05:16:11.968Z,25.10
2018-11-21T05:18:40.437Z,29.10
2018-11-21T05:21:08.929Z,25.70
2018-11-21T05:23:37.403Z,25.37
2018-11-21T05:26:06.575Z,25.47
2018-11-21T05:28:35.097Z,24.30
2018-11-21T05:31:03.573Z,24.07
2018-11-21T05:33:32.347Z,25.23
2018-11-21T05:36:00.864Z,27.43
2018-11-21T05:38:30.340Z,27.90
2018-11-21T05:40:58.826Z,24.73
2018-11-21T05:43:27.312Z,24.27
2018-11-21T05:45:55.759Z,26.97
2018-11-21T05:48:26.052Z,26.97
2018-11-21T05:50:54.514Z,26.57
2018-11-21T05:53:22.970Z,25.10
2018-11-21T05:55:51.879Z,28.00
2018-11-21T05:58:21.265Z,29.07
2018-11-21T06:00:54.196Z,25.87
2018-11-21T06:03:42.566Z,23.80
2018-11-21T06:06:11.349Z,33.20
2018-11-21T06:08:40.134Z,35.27
2018-11-21T06:11:08.585Z,39.33
2018-11-21T06:13:37.052Z,26.33
2018-11-21T06:16:06.364Z,29.97
2018-11-21T06:18:34.805Z,26.77
2018-11-21T06:21:03.305Z,31.67
2018-11-21T06:23:32.142Z,27.13
2018-11-21T06:26:01.048Z,32.03
2018-11-21T06:28:30.540Z,26.60
2018-11-21T06:30:58.998Z,26.73
2018-11-21T06:33:27.455Z,25.60
2018-11-21T06:35:56.223Z,32.77
2018-11-21T06:38:25.033Z,31.80
2018-11-21T06:40:53.842Z,27.27
2018-11-21T06:43:22.979Z,32.17
2018-11-21T06:45:51.414Z,26.67
2018-11-21T06:48:20.246Z,31.60
2018-11-21T06:50:49.277Z,29.87
2018-11-21T06:53:18.448Z,32.60
2018-11-21T06:55:47.148Z,27.03
2018-11-21T06:58:16.324Z,27.73
2018-11-21T07:00:45.043Z,30.97
2018-11-21T07:03:13.574Z,30.90
2018-11-21T07:05:42.010Z,33.77
2018-11-21T07:08:10.788Z,30.20
2018-11-21T07:10:39.599Z,31.03
2018-11-21T07:13:11.255Z,30.83
2018-11-21T07:15:37.533Z,32.83
2018-11-21T07:18:06.056Z,32.83
2018-11-21T07:20:34.835Z,25.77
2018-11-21T07:23:03.340Z,41.60
2018-11-21T07:25:32.655Z,34.80
2018-11-21T07:28:01.779Z,60.97
2018-11-21T07:30:30.574Z,36.97
2018-11-21T07:32:59.291Z,30.40
2018-11-21T07:35:28.230Z,34.70
2018-11-21T07:37:58.384Z,31.30
2018-11-21T07:40:27.470Z,32.60
2018-11-21T07:42:55.959Z,30.27
2018-11-21T07:45:24.366Z,27.80
2018-11-21T07:47:52.940Z,31.87
2018-11-21T07:50:22.313Z,30.10
2018-11-21T07:52:51.070Z,47.23
2018-11-21T07:55:19.519Z,30.77
2018-11-21T07:57:55.768Z,33.00
2018-11-21T08:01:20.925Z,31.13
2018-11-21T08:03:54.163Z,29.17
2018-11-21T08:06:44.905Z,29.40
2018-11-21T08:09:27.948Z,26.70
2018-11-21T08:12:19.019Z,29.30
2018-11-21T08:15:05.521Z,32.87
2018-11-21T08:17:42.788Z,27.83
2018-11-21T08:20:29.471Z,25.80
2018-11-21T08:23:26.459Z,28.90
2018-11-21T08:26:13.286Z,34.93
2018-11-21T08:28:42.561Z,24.20
2018-11-21T08:31:11.671Z,26.80
2018-11-21T08:33:40.527Z,26.07
2018-11-21T08:36:08.974Z,28.43
2018-11-21T08:38:37.707Z,28.70
2018-11-21T08:41:06.192Z,26.40
2018-11-21T08:43:34.627Z,29.87
2018-11-21T08:46:03.533Z,30.40
2018-11-21T08:48:32.288Z,28.60
2018-11-21T08:51:00.791Z,31.37
2018-11-21T08:53:29.310Z,37.70
2018-11-21T08:55:57.763Z,34.47
2018-11-21T08:58:26.811Z,35.83
2018-11-21T09:00:56.180Z,31.70
2018-11-21T09:03:25.393Z,36.10
2018-11-21T09:05:53.792Z,32.23
2018-11-21T09:08:22.791Z,37.00
2018-11-21T09:10:52.729Z,42.03
2018-11-21T09:13:20.604Z,47.80
2018-11-21T09:15:49.502Z,33.30
2018-11-21T09:18:18.646Z,50.03
2018-11-21T09:20:47.208Z,36.70
2018-11-21T09:23:15.706Z,38.67
2018-11-21T09:25:44.480Z,30.73
2018-11-21T09:28:12.917Z,32.00
2018-11-21T09:30:41.799Z,25.47
2018-11-21T09:33:10.590Z,31.37
2018-11-21T09:35:39.173Z,29.43
2018-11-21T09:38:08.338Z,27.50
2018-11-21T09:40:37.134Z,32.67
2018-11-21T09:43:06.217Z,29.30
2018-11-21T09:45:39.057Z,36.73
2018-11-21T09:48:08.299Z,30.17
2018-11-21T09:50:37.403Z,26.57
2018-11-21T09:53:06.630Z,27.87
2018-11-21T09:55:35.947Z,27.43
2018-11-21T09:58:05.196Z,35.97
2018-11-21T10:01:10.430Z,28.53
2018-11-21T10:03:40.111Z,26.07
2018-11-21T10:06:17.681Z,31.77
2018-11-21T10:08:47.867Z,30.93
2018-11-21T10:11:16.949Z,35.50
2018-11-21T10:13:45.749Z,27.43
2018-11-21T10:16:14.569Z,31.17
2018-11-21T10:18:44.844Z,27.80
2018-11-21T10:21:14.880Z,31.70
2018-11-21T10:23:45.196Z,24.50
2018-11-21T10:26:12.546Z,28.70
2018-11-21T10:28:41.461Z,39.73
2018-11-21T10:31:10.821Z,28.90
2018-11-21T10:33:40.097Z,25.20
2018-11-21T10:36:09.007Z,28.33
2018-11-21T10:38:37.504Z,28.93
2018-11-21T10:41:06.351Z,35.70
2018-11-21T10:43:35.935Z,30.90
2018-11-21T10:46:04.907Z,27.77
2018-11-21T10:48:33.733Z,21.03
2018-11-21T10:51:02.490Z,26.23
2018-11-21T10:53:31.219Z,27.30
2018-11-21T10:56:00.192Z,28.00
2018-11-21T10:58:28.641Z,26.30
2018-11-21T11:01:15.452Z,24.40
2018-11-21T11:03:58.701Z,27.90
2018-11-21T11:07:49.847Z,23.40
2018-11-21T11:10:50.235Z,24.80
2018-11-21T11:13:48.566Z,23.50
2018-11-21T11:16:39.970Z,31.20
2018-11-21T11:19:27.167Z,26.90
2018-11-21T11:22:28.448Z,25.53
2018-11-21T11:25:09.281Z,18.87
2018-11-21T11:28:04.391Z,25.67
2018-11-21T11:30:52.779Z,23.93
2018-11-21T11:33:50.659Z,24.13
2018-11-21T11:36:48.624Z,25.87
2018-11-21T11:39:46.758Z,22.43
2018-11-21T11:42:53.805Z,25.37
2018-11-21T11:45:43.227Z,24.97
2018-11-21T11:48:32.245Z,22.73
2018-11-21T11:51:24.532Z,32.50
2018-11-21T11:54:13.228Z,28.00
2018-11-21T11:57:18.625Z,27.53
2018-11-21T12:00:01.751Z,30.80
2018-11-21T12:02:53.234Z,34.40
2018-11-21T12:05:34.558Z,24.47
2018-11-21T12:08:29.008Z,24.13
2018-11-21T12:11:26.220Z,26.73
2018-11-21T12:14:13.778Z,26.77
2018-11-21T12:17:01.478Z,29.17
2018-11-21T12:19:55.054Z,24.43
2018-11-21T12:22:43.609Z,21.50
2018-11-21T12:25:33.004Z,27.33
2018-11-21T12:28:31.045Z,23.63
2018-11-21T12:31:23.701Z,21.97
2018-11-21T12:34:24.544Z,21.07
2018-11-21T12:37:13.487Z,21.83
2018-11-21T12:40:00.968Z,28.60
2018-11-21T12:42:44.637Z,25.60
2018-11-21T12:45:24.144Z,22.57
2018-11-21T12:48:13.068Z,27.20
2018-11-21T12:51:03.324Z,25.10
2018-11-21T12:53:54.429Z,24.93
2018-11-21T12:56:55.104Z,26.17
2018-11-21T12:59:46.842Z,25.77
2018-11-21T13:02:47.379Z,21.07
2018-11-21T13:05:41.902Z,23.83
2018-11-21T13:08:39.332Z,23.43
2018-11-21T13:11:33.863Z,28.17
2018-11-21T13:14:31.274Z,30.30
2018-11-21T13:17:18.540Z,22.30
2018-11-21T13:20:06.268Z,21.37
2018-11-21T13:22:53.616Z,26.30
2018-11-21T13:25:41.244Z,26.20
2018-11-21T13:28:39.070Z,26.00
2018-11-21T13:31:33.392Z,27.33
2018-11-21T13:34:28.132Z,24.30
2018-11-21T13:37:17.010Z,31.03
2018-11-21T13:40:05.040Z,23.83
2018-11-21T13:43:12.155Z,20.80
2018-11-21T13:46:12.588Z,23.97
2018-11-21T13:49:07.127Z,21.50
2018-11-21T13:51:54.995Z,21.63
2018-11-21T13:54:42.559Z,28.17
2018-11-21T13:57:12.856Z,24.67
2018-11-21T13:59:43.663Z,23.83
2018-11-21T14:02:13.612Z,26.83
2018-11-21T14:04:44.003Z,24.17
2018-11-21T14:07:14.231Z,27.07
2018-11-21T14:09:44.165Z,22.77
2018-11-21T14:12:14.176Z,22.37
2018-11-21T14:14:45.160Z,29.10
2018-11-21T14:17:15.428Z,26.60
2018-11-21T14:19:45.703Z,26.17
2018-11-21T14:22:16.104Z,23.97
2018-11-21T14:24:46.376Z,23.70
2018-11-21T14:27:16.337Z,27.13
2018-11-21T14:29:46.528Z,26.40
2018-11-21T14:32:17.157Z,27.77
2018-11-21T14:34:47.391Z,26.07
2018-11-21T14:37:17.308Z,29.20
2018-11-21T14:39:47.518Z,28.90
2018-11-21T14:42:18.051Z,25.67
2018-11-21T14:44:48.308Z,29.97
2018-11-21T14:47:18.344Z,30.50
2018-11-21T14:49:53.471Z,28.37
2018-11-21T14:52:23.495Z,34.40
2018-11-21T14:54:53.487Z,28.90
2018-11-21T14:57:25.252Z,28.47
2018-11-21T14:59:55.146Z,25.90
2018-11-21T15:02:25.166Z,25.87
2018-11-21T15:04:55.511Z,27.30
2018-11-21T15:07:25.960Z,28.90
2018-11-21T15:09:55.921Z,25.37
2018-11-21T15:12:26.259Z,29.17
2018-11-21T15:14:56.302Z,27.07
2018-11-21T15:17:26.639Z,28.70
2018-11-21T15:19:56.720Z,24.37
2018-11-21T15:22:26.989Z,26.80
2018-11-21T15:24:57.324Z,31.30
2018-11-21T15:27:27.311Z,29.10
2018-11-21T15:30:00.190Z,25.50
2018-11-21T15:32:28.547Z,31.03
2018-11-21T15:34:59.179Z,27.63
2018-11-21T15:37:29.127Z,26.57
2018-11-21T15:39:59.429Z,30.07
2018-11-21T15:42:29.718Z,28.17
2018-11-21T15:45:00.088Z,27.07
2018-11-21T15:47:30.111Z,29.60
2018-11-21T15:50:00.154Z,53.87
2018-11-21T15:52:30.536Z,26.90
2018-11-21T15:55:00.763Z,25.03
2018-11-21T15:57:30.699Z,32.77
2018-11-21T16:00:00.973Z,27.53
2018-11-21T16:02:32.834Z,27.20
2018-11-21T16:05:03.384Z,25.70
2018-11-21T16:07:33.324Z,30.03
2018-11-21T16:10:09.663Z,26.57
2018-11-21T16:12:33.707Z,25.43
2018-11-21T16:15:03.809Z,26.73
2018-11-21T16:17:34.487Z,26.90
2018-11-21T16:20:04.946Z,29.93
2018-11-21T16:22:35.001Z,33.33
2018-11-21T16:25:05.478Z,25.20
2018-11-21T16:27:35.805Z,27.47
2018-11-21T16:30:07.893Z,30.73
2018-11-21T16:32:38.051Z,34.63
2018-11-21T16:35:08.681Z,29.50
2018-11-21T16:37:39.561Z,28.27
2018-11-21T16:40:16.771Z,30.70
2018-11-21T16:42:47.583Z,30.13
2018-11-21T16:45:19.822Z,28.97
2018-11-21T16:47:49.815Z,28.00
2018-11-21T16:50:20.696Z,28.30
2018-11-21T16:52:50.837Z,30.23
2018-11-21T16:55:23.123Z,32.43
2018-11-21T16:57:56.914Z,34.13
2018-11-21T17:00:28.473Z,26.07
2018-11-21T17:02:58.408Z,30.73
2018-11-21T17:05:29.198Z,29.97
2018-11-21T17:07:59.162Z,30.73
2018-11-21T17:10:30.249Z,25.27
2018-11-21T17:13:00.538Z,29.40
2018-11-21T17:15:32.343Z,28.73
2018-11-21T17:18:02.679Z,30.13
2018-11-21T17:20:38.859Z,27.77
2018-11-21T17:23:27.959Z,27.63
2018-11-21T17:25:58.313Z,30.50
2018-11-21T17:28:28.265Z,29.50
2018-11-21T17:30:58.554Z,31.43
2018-11-21T17:33:29.196Z,34.27
2018-11-21T17:35:59.432Z,29.80
2018-11-21T17:38:33.696Z,33.33
2018-11-21T17:41:00.467Z,28.07
2018-11-21T17:43:30.447Z,30.90
2018-11-21T17:46:04.075Z,31.50
2018-11-21T17:48:30.665Z,32.13
2018-11-21T17:51:00.736Z,35.20
2018-11-21T17:53:31.385Z,32.23
2018-11-21T17:56:01.741Z,27.57
2018-11-21T17:58:32.060Z,30.03
2018-11-21T18:01:02.803Z,30.73
2018-11-21T18:03:33.182Z,30.03
2018-11-21T18:06:03.650Z,28.63
2018-11-21T18:08:33.688Z,26.97
2018-11-21T18:11:04.396Z,27.30
2018-11-21T18:13:34.648Z,28.87
2018-11-21T18:16:05.035Z,35.03
2018-11-21T18:18:34.960Z,29.20
2018-11-21T18:21:04.968Z,26.30
2018-11-21T18:23:35.257Z,28.70
2018-11-21T18:26:05.263Z,29.60
2018-11-21T18:28:35.631Z,28.43
2018-11-21T18:31:06.160Z,26.13
2018-11-21T18:33:36.411Z,26.80
2018-11-21T18:36:06.511Z,32.27
2018-11-21T18:38:36.456Z,28.87
2018-11-21T18:41:06.484Z,30.37
2018-11-21T18:43:36.906Z,29.77
2018-11-21T18:46:07.603Z,27.37
2018-11-21T18:48:37.968Z,30.90
2018-11-21T18:51:08.543Z,26.17
2018-11-21T18:53:38.911Z,24.93
2018-11-21T18:56:36.900Z,26.43
2018-11-21T18:59:33.492Z,23.60
2018-11-21T19:02:04.124Z,26.83
2018-11-21T19:04:34.485Z,26.57
2018-11-21T19:07:04.737Z,28.83
2018-11-21T19:09:35.517Z,22.13
2018-11-21T19:12:05.852Z,27.40
2018-11-21T19:14:36.264Z,22.20
2018-11-21T19:17:06.623Z,21.10
2018-11-21T19:19:37.152Z,26.30
2018-11-21T19:22:07.052Z,29.37
2018-11-21T19:24:38.279Z,27.20
2018-11-21T19:27:08.656Z,26.13
2018-11-21T19:29:39.120Z,26.97
2018-11-21T19:32:09.453Z,23.53
2018-11-21T19:34:39.988Z,29.40
2018-11-21T19:37:10.335Z,26.20
2018-11-21T19:39:40.667Z,27.20
2018-11-21T19:42:10.634Z,23.40
2018-11-21T19:44:40.864Z,27.87
2018-11-21T19:47:10.864Z,23.27
2018-11-21T19:49:40.915Z,23.20
2018-11-21T19:52:10.936Z,22.60
2018-11-21T19:54:40.881Z,22.33
2018-11-21T19:57:10.996Z,22.50
2018-11-21T19:59:43.601Z,23.27
2018-11-21T20:02:11.441Z,24.83
2018-11-21T20:04:41.840Z,27.20
2018-11-21T20:07:11.805Z,21.00
2018-11-21T20:09:41.799Z,20.77
2018-11-21T20:12:11.832Z,22.80
2018-11-21T20:14:41.896Z,21.20
2018-11-21T20:17:12.534Z,26.13
2018-11-21T20:19:43.350Z,19.93
2018-11-21T20:22:13.215Z,23.00
2018-11-21T20:24:44.174Z,23.43
2018-11-21T20:27:14.108Z,22.00
2018-11-21T20:29:46.684Z,19.27
2018-11-21T20:32:16.020Z,21.03
2018-11-21T20:34:46.668Z,20.03
2018-11-21T20:37:16.893Z,22.57
2018-11-21T20:39:47.131Z,25.37
2018-11-21T20:42:17.439Z,16.30
2018-11-21T20:44:48.007Z,21.13
2018-11-21T20:47:18.012Z,23.47
2018-11-21T20:49:48.042Z,17.60
2018-11-21T20:52:18.401Z,24.17
2018-11-21T20:54:48.696Z,19.00
2018-11-21T20:57:19.176Z,18.40
2018-11-21T20:59:49.516Z,18.73
2018-11-21T21:02:19.760Z,24.30
2018-11-21T21:04:50.471Z,15.50
2018-11-21T21:07:22.526Z,17.50
2018-11-21T21:09:50.465Z,15.80
2018-11-21T21:12:20.474Z,13.13
2018-11-21T21:14:50.772Z,13.70
2018-11-21T21:17:20.791Z,12.23
2018-11-21T21:19:51.127Z,12.97
2018-11-21T21:22:21.432Z,13.73
2018-11-21T21:24:52.280Z,14.10
2018-11-21T21:27:22.222Z,11.93
2018-11-21T21:29:52.297Z,17.53
2018-11-21T21:32:22.416Z,14.80
2018-11-21T21:34:52.960Z,15.30
2018-11-21T21:37:23.403Z,38.90
2018-11-21T21:39:53.415Z,12.83
2018-11-21T21:42:23.524Z,12.53
2018-11-21T21:44:53.425Z,12.70
2018-11-21T21:47:23.995Z,12.80
2018-11-21T21:50:05.306Z,15.20
2018-11-21T21:52:35.972Z,12.37
2018-11-21T21:55:06.788Z,11.27
2018-11-21T21:57:36.872Z,13.80
2018-11-21T22:00:14.194Z,12.57
2018-11-21T22:02:44.427Z,11.63
2018-11-21T22:05:14.796Z,11.23
2018-11-21T22:07:44.827Z,11.57
2018-11-21T22:10:15.990Z,14.03
2018-11-21T22:12:46.345Z,12.73
2018-11-21T22:15:41.292Z,11.07
2018-11-21T22:18:16.003Z,11.03
2018-11-21T22:20:46.091Z,15.83
2018-11-21T22:23:16.062Z,12.57
2018-11-21T22:25:46.710Z,13.80
2018-11-21T22:28:18.327Z,11.67
2018-11-21T22:30:48.350Z,13.20
2018-11-21T22:33:18.339Z,11.57
2018-11-21T22:35:48.373Z,16.70
2018-11-21T22:38:18.947Z,12.07
2018-11-21T22:40:48.919Z,14.20
2018-11-21T22:43:19.136Z,14.50
2018-11-21T22:45:49.175Z,13.70
2018-11-21T22:48:19.605Z,11.30
2018-11-21T22:50:49.582Z,13.47
2018-11-21T22:53:20.188Z,12.40
2018-11-21T22:55:50.135Z,14.00
2018-11-21T22:58:20.704Z,13.70
2018-11-21T23:00:52.681Z,12.40
2018-11-21T23:03:23.323Z,11.93
2018-11-21T23:05:53.824Z,11.53
2018-11-21T23:08:24.509Z,11.10
2018-11-21T23:10:54.760Z,11.70
2018-11-21T23:13:25.459Z,11.97
2018-11-21T23:15:56.007Z,13.57
2018-11-21T23:18:26.515Z,11.50
2018-11-21T23:20:56.839Z,12.93
2018-11-21T23:23:26.808Z,12.60
2018-11-21T23:25:57.619Z,11.37
2018-11-21T23:28:27.529Z,13.17
2018-11-21T23:30:57.476Z,14.47
2018-11-21T23:33:27.514Z,11.70
2018-11-21T23:35:58.169Z,12.13
2018-11-21T23:38:28.411Z,10.50
2018-11-21T23:40:58.930Z,12.03
2018-11-21T23:43:28.891Z,12.07
2018-11-21T23:45:59.476Z,14.40
2018-11-21T23:48:30.253Z,12.90
2018-11-21T23:51:00.529Z,11.47
2018-11-21T23:53:31.063Z,12.73
2018-11-21T23:56:01.870Z,12.77
2018-11-21T23:58:32.145Z,13.07
